Terminal Aerodrome Forecast
Issued by NWS Cleveland, OH

Home | Current Version | Previous Version | Graphics & Text | Print | Product List | Glossary Off
Versions: 1 2 3 4 5 6 7 8 9 10 11 12 13 14 15 16 17

000
FTUS41 KCLE 311400 AAA
TAFERI
TAF AMD
KERI 311422Z 3114/0112 23009KT P6SM SCT035 BKN070
     FM311800 28009KT P6SM SCT045
     FM010100 18005KT P6SM SCT050
     FM010900 18005KT P6SM SCT050=

USA.gov is the U.S. government's official web portal to all federal, state and local government web resources and services.